sensor_id;sensor_type;location;lat;lon;timestamp;temperature;humidity
44170;DHT22;29836;52.286;9.576;2022-10-16T00:00:43;13.50;99.90
44170;DHT22;29836;52.286;9.576;2022-10-16T00:03:10;13.50;99.90
44170;DHT22;29836;52.286;9.576;2022-10-16T00:05:43;13.40;99.90
44170;DHT22;29836;52.286;9.576;2022-10-16T00:08:10;13.40;99.90
44170;DHT22;29836;52.286;9.576;2022-10-16T00:10:36;13.30;99.90
44170;DHT22;29836;52.286;9.576;2022-10-16T00:13:02;13.20;99.90
44170;DHT22;29836;52.286;9.576;2022-10-16T00:15:27;13.10;99.90
44170;DHT22;29836;52.286;9.576;2022-10-16T00:17:53;13.20;99.90
44170;DHT22;29836;52.286;9.576;2022-10-16T00:20:18;13.10;99.90
44170;DHT22;29836;52.286;9.576;2022-10-16T00:22:44;13.10;99.90
44170;DHT22;29836;52.286;9.576;2022-10-16T00:25:09;13.00;99.90
44170;DHT22;29836;52.286;9.576;2022-10-16T00:27:35;13.00;99.90
44170;DHT22;29836;52.286;9.576;2022-10-16T00:30:01;13.00;99.90
44170;DHT22;29836;52.286;9.576;2022-10-16T00:32:27;12.90;99.90
44170;DHT22;29836;52.286;9.576;2022-10-16T00:34:52;13.00;99.90
44170;DHT22;29836;52.286;9.576;2022-10-16T00:37:20;13.10;99.90
44170;DHT22;29836;52.286;9.576;2022-10-16T00:39:46;13.00;99.90
44170;DHT22;29836;52.286;9.576;2022-10-16T00:42:18;13.20;99.90
44170;DHT22;29836;52.286;9.576;2022-10-16T00:44:57;13.20;99.90
44170;DHT22;29836;52.286;9.576;2022-10-16T00:47:29;13.10;99.90
44170;DHT22;29836;52.286;9.576;2022-10-16T00:52:27;12.90;99.90
44170;DHT22;29836;52.286;9.576;2022-10-16T00:54:54;13.00;99.90
44170;DHT22;29836;52.286;9.576;2022-10-16T00:57:20;13.00;99.90
44170;DHT22;29836;52.286;9.576;2022-10-16T00:59:46;12.90;99.90
44170;DHT22;29836;52.286;9.576;2022-10-16T01:02:14;12.90;99.90
44170;DHT22;29836;52.286;9.576;2022-10-16T01:04:49;13.00;99.90
44170;DHT22;29836;52.286;9.576;2022-10-16T01:15:27;13.00;99.90
44170;DHT22;29836;52.286;9.576;2022-10-16T01:20:35;12.90;99.90
44170;DHT22;29836;52.286;9.576;2022-10-16T01:29:02;12.80;99.90
44170;DHT22;29836;52.286;9.576;2022-10-16T01:31:31;12.70;99.90
44170;DHT22;29836;52.286;9.576;2022-10-16T01:34:13;12.50;99.90
44170;DHT22;29836;52.286;9.576;2022-10-16T01:36:49;12.20;99.90
44170;DHT22;29836;52.286;9.576;2022-10-16T01:39:20;12.00;99.90
44170;DHT22;29836;52.286;9.576;2022-10-16T01:41:51;11.80;99.90
44170;DHT22;29836;52.286;9.576;2022-10-16T01:44:22;11.80;99.90
44170;DHT22;29836;52.286;9.576;2022-10-16T01:46:52;11.90;99.90
44170;DHT22;29836;52.286;9.576;2022-10-16T01:49:20;12.00;99.90
44170;DHT22;29836;52.286;9.576;2022-10-16T01:51:49;12.00;99.90
44170;DHT22;29836;52.286;9.576;2022-10-16T01:54:17;12.20;99.90
44170;DHT22;29836;52.286;9.576;2022-10-16T01:56:44;12.20;99.90
44170;DHT22;29836;52.286;9.576;2022-10-16T01:59:13;12.20;99.90
44170;DHT22;29836;52.286;9.576;2022-10-16T02:01:43;12.20;99.90
44170;DHT22;29836;52.286;9.576;2022-10-16T02:04:32;12.30;99.90
44170;DHT22;29836;52.286;9.576;2022-10-16T02:06:58;12.40;99.90
44170;DHT22;29836;52.286;9.576;2022-10-16T02:09:24;12.70;99.90
44170;DHT22;29836;52.286;9.576;2022-10-16T02:11:53;12.80;99.90
44170;DHT22;29836;52.286;9.576;2022-10-16T02:14:20;12.70;99.90
44170;DHT22;29836;52.286;9.576;2022-10-16T02:16:47;12.70;99.90
44170;DHT22;29836;52.286;9.576;2022-10-16T02:19:13;12.70;99.90
44170;DHT22;29836;52.286;9.576;2022-10-16T02:21:44;12.90;99.90
44170;DHT22;29836;52.286;9.576;2022-10-16T02:24:14;12.90;99.90
44170;DHT22;29836;52.286;9.576;2022-10-16T02:29:27;13.00;99.90
44170;DHT22;29836;52.286;9.576;2022-10-16T02:32:00;13.00;99.90
44170;DHT22;29836;52.286;9.576;2022-10-16T02:34:27;12.90;99.90
44170;DHT22;29836;52.286;9.576;2022-10-16T02:36:56;12.90;99.90
44170;DHT22;29836;52.286;9.576;2022-10-16T02:39:22;12.90;99.90
44170;DHT22;29836;52.286;9.576;2022-10-16T02:41:48;12.80;99.90
44170;DHT22;29836;52.286;9.576;2022-10-16T02:44:14;12.70;99.90
44170;DHT22;29836;52.286;9.576;2022-10-16T02:46:40;12.60;99.90
44170;DHT22;29836;52.286;9.576;2022-10-16T02:49:05;12.50;99.90
44170;DHT22;29836;52.286;9.576;2022-10-16T02:51:31;12.60;99.90
44170;DHT22;29836;52.286;9.576;2022-10-16T02:53:56;12.50;99.90
44170;DHT22;29836;52.286;9.576;2022-10-16T02:56:22;12.50;99.90
44170;DHT22;29836;52.286;9.576;2022-10-16T02:58:47;12.50;99.90
44170;DHT22;29836;52.286;9.576;2022-10-16T03:01:13;12.50;99.90
44170;DHT22;29836;52.286;9.576;2022-10-16T03:03:39;12.60;99.90
44170;DHT22;29836;52.286;9.576;2022-10-16T03:06:05;12.60;99.90
44170;DHT22;29836;52.286;9.576;2022-10-16T03:08:31;12.60;99.90
44170;DHT22;29836;52.286;9.576;2022-10-16T03:10:57;12.70;99.90
44170;DHT22;29836;52.286;9.576;2022-10-16T03:13:22;12.80;99.90
44170;DHT22;29836;52.286;9.576;2022-10-16T03:15:48;12.80;99.90
44170;DHT22;29836;52.286;9.576;2022-10-16T03:18:14;12.80;99.90
44170;DHT22;29836;52.286;9.576;2022-10-16T03:20:39;12.90;99.90
44170;DHT22;29836;52.286;9.576;2022-10-16T03:23:05;13.00;99.90
44170;DHT22;29836;52.286;9.576;2022-10-16T03:25:32;13.00;99.90
44170;DHT22;29836;52.286;9.576;2022-10-16T03:27:57;13.00;99.90
44170;DHT22;29836;52.286;9.576;2022-10-16T03:30:23;13.00;99.90
44170;DHT22;29836;52.286;9.576;2022-10-16T03:32:48;13.10;99.90
44170;DHT22;29836;52.286;9.576;2022-10-16T03:35:22;13.00;99.90
44170;DHT22;29836;52.286;9.576;2022-10-16T03:37:48;13.00;99.90
44170;DHT22;29836;52.286;9.576;2022-10-16T03:40:14;13.00;99.90
44170;DHT22;29836;52.286;9.576;2022-10-16T03:42:41;13.00;99.90
44170;DHT22;29836;52.286;9.576;2022-10-16T03:45:07;13.00;99.90
44170;DHT22;29836;52.286;9.576;2022-10-16T03:47:33;13.00;99.90
44170;DHT22;29836;52.286;9.576;2022-10-16T03:49:59;13.10;99.90
44170;DHT22;29836;52.286;9.576;2022-10-16T03:52:25;13.00;99.90
44170;DHT22;29836;52.286;9.576;2022-10-16T03:54:51;13.00;99.90
44170;DHT22;29836;52.286;9.576;2022-10-16T03:57:17;13.10;99.90
44170;DHT22;29836;52.286;9.576;2022-10-16T03:59:42;13.00;99.90
44170;DHT22;29836;52.286;9.576;2022-10-16T04:02:08;13.00;99.90
44170;DHT22;29836;52.286;9.576;2022-10-16T04:04:34;12.90;99.90
44170;DHT22;29836;52.286;9.576;2022-10-16T04:06:59;12.80;99.90
44170;DHT22;29836;52.286;9.576;2022-10-16T04:09:25;12.80;99.90
44170;DHT22;29836;52.286;9.576;2022-10-16T04:11:51;12.60;99.90
44170;DHT22;29836;52.286;9.576;2022-10-16T04:14:16;12.60;99.90
44170;DHT22;29836;52.286;9.576;2022-10-16T04:16:42;12.50;99.90
44170;DHT22;29836;52.286;9.576;2022-10-16T04:19:08;12.30;99.90
44170;DHT22;29836;52.286;9.576;2022-10-16T04:21:34;12.30;99.90
44170;DHT22;29836;52.286;9.576;2022-10-16T04:24:00;12.30;99.90
44170;DHT22;29836;52.286;9.576;2022-10-16T04:26:25;12.30;99.90
44170;DHT22;29836;52.286;9.576;2022-10-16T04:28:51;12.30;99.90
44170;DHT22;29836;52.286;9.576;2022-10-16T04:31:16;12.30;99.90
44170;DHT22;29836;52.286;9.576;2022-10-16T04:33:43;12.30;99.90
44170;DHT22;29836;52.286;9.576;2022-10-16T04:36:08;12.40;99.90
44170;DHT22;29836;52.286;9.576;2022-10-16T04:38:34;12.50;99.90
44170;DHT22;29836;52.286;9.576;2022-10-16T04:41:00;12.50;99.90
44170;DHT22;29836;52.286;9.576;2022-10-16T04:43:26;12.50;99.90
44170;DHT22;29836;52.286;9.576;2022-10-16T04:45:51;12.50;99.90
44170;DHT22;29836;52.286;9.576;2022-10-16T04:48:18;12.50;99.90
44170;DHT22;29836;52.286;9.576;2022-10-16T04:50:43;12.50;99.90
44170;DHT22;29836;52.286;9.576;2022-10-16T04:53:09;12.50;99.90
44170;DHT22;29836;52.286;9.576;2022-10-16T04:55:34;12.40;99.90
44170;DHT22;29836;52.286;9.576;2022-10-16T04:58:00;12.50;99.90
44170;DHT22;29836;52.286;9.576;2022-10-16T05:00:26;12.50;99.90
44170;DHT22;29836;52.286;9.576;2022-10-16T05:02:51;12.50;99.90
44170;DHT22;29836;52.286;9.576;2022-10-16T05:05:17;12.50;99.90
44170;DHT22;29836;52.286;9.576;2022-10-16T05:07:48;12.60;99.90
44170;DHT22;29836;52.286;9.576;2022-10-16T05:10:15;12.50;99.90
44170;DHT22;29836;52.286;9.576;2022-10-16T05:12:41;12.50;99.90
44170;DHT22;29836;52.286;9.576;2022-10-16T05:15:07;12.50;99.90
44170;DHT22;29836;52.286;9.576;2022-10-16T05:17:32;12.40;99.90
44170;DHT22;29836;52.286;9.576;2022-10-16T05:19:58;12.40;99.90
44170;DHT22;29836;52.286;9.576;2022-10-16T05:22:24;12.40;99.90
44170;DHT22;29836;52.286;9.576;2022-10-16T05:24:49;12.40;99.90
44170;DHT22;29836;52.286;9.576;2022-10-16T05:27:15;12.40;99.90
44170;DHT22;29836;52.286;9.576;2022-10-16T05:29:47;12.40;99.90
44170;DHT22;29836;52.286;9.576;2022-10-16T05:32:14;12.40;99.90
44170;DHT22;29836;52.286;9.576;2022-10-16T05:34:40;12.40;99.90
44170;DHT22;29836;52.286;9.576;2022-10-16T05:37:06;12.40;99.90
44170;DHT22;29836;52.286;9.576;2022-10-16T05:39:31;12.30;99.90
44170;DHT22;29836;52.286;9.576;2022-10-16T05:41:57;12.30;99.90
44170;DHT22;29836;52.286;9.576;2022-10-16T05:44:23;12.30;99.90
44170;DHT22;29836;52.286;9.576;2022-10-16T05:46:48;12.30;99.90
44170;DHT22;29836;52.286;9.576;2022-10-16T05:49:14;12.30;99.90
44170;DHT22;29836;52.286;9.576;2022-10-16T05:51:40;12.30;99.90
44170;DHT22;29836;52.286;9.576;2022-10-16T05:54:06;12.40;99.90
44170;DHT22;29836;52.286;9.576;2022-10-16T05:56:32;12.50;99.90
44170;DHT22;29836;52.286;9.576;2022-10-16T05:58:57;12.50;99.90
44170;DHT22;29836;52.286;9.576;2022-10-16T06:01:23;12.60;99.90
44170;DHT22;29836;52.286;9.576;2022-10-16T06:03:50;12.60;99.90
44170;DHT22;29836;52.286;9.576;2022-10-16T06:06:18;12.70;99.90
44170;DHT22;29836;52.286;9.576;2022-10-16T06:08:46;12.60;99.90
44170;DHT22;29836;52.286;9.576;2022-10-16T06:11:18;12.70;99.90
44170;DHT22;29836;52.286;9.576;2022-10-16T06:13:44;12.80;99.90
44170;DHT22;29836;52.286;9.576;2022-10-16T06:16:12;12.80;99.90
44170;DHT22;29836;52.286;9.576;2022-10-16T06:18:38;12.70;99.90
44170;DHT22;29836;52.286;9.576;2022-10-16T06:21:16;12.70;99.90
44170;DHT22;29836;52.286;9.576;2022-10-16T06:23:42;12.70;99.90
44170;DHT22;29836;52.286;9.576;2022-10-16T06:26:09;12.70;99.90
44170;DHT22;29836;52.286;9.576;2022-10-16T06:28:35;12.80;99.90
44170;DHT22;29836;52.286;9.576;2022-10-16T06:31:02;12.90;99.90
44170;DHT22;29836;52.286;9.576;2022-10-16T06:33:28;12.90;99.90
44170;DHT22;29836;52.286;9.576;2022-10-16T06:35:53;12.90;99.90
44170;DHT22;29836;52.286;9.576;2022-10-16T06:38:19;12.90;99.90
44170;DHT22;29836;52.286;9.576;2022-10-16T06:40:45;13.00;99.90
44170;DHT22;29836;52.286;9.576;2022-10-16T06:43:10;13.00;99.90
44170;DHT22;29836;52.286;9.576;2022-10-16T06:45:36;13.00;99.90
44170;DHT22;29836;52.286;9.576;2022-10-16T06:48:02;12.90;99.90
44170;DHT22;29836;52.286;9.576;2022-10-16T06:50:27;12.90;99.90
44170;DHT22;29836;52.286;9.576;2022-10-16T06:52:53;13.00;99.90
44170;DHT22;29836;52.286;9.576;2022-10-16T06:55:19;13.10;99.90
44170;DHT22;29836;52.286;9.576;2022-10-16T06:57:47;13.10;99.90
44170;DHT22;29836;52.286;9.576;2022-10-16T07:00:12;13.20;99.90
44170;DHT22;29836;52.286;9.576;2022-10-16T07:02:38;13.30;99.90
44170;DHT22;29836;52.286;9.576;2022-10-16T07:05:04;13.60;99.90
44170;DHT22;29836;52.286;9.576;2022-10-16T07:07:29;13.70;99.90
44170;DHT22;29836;52.286;9.576;2022-10-16T07:09:55;13.90;99.90
44170;DHT22;29836;52.286;9.576;2022-10-16T07:12:21;14.10;99.90
44170;DHT22;29836;52.286;9.576;2022-10-16T07:14:46;14.20;99.90
44170;DHT22;29836;52.286;9.576;2022-10-16T07:17:12;14.40;99.90
44170;DHT22;29836;52.286;9.576;2022-10-16T07:19:37;14.40;99.90
44170;DHT22;29836;52.286;9.576;2022-10-16T07:22:03;14.50;99.90
44170;DHT22;29836;52.286;9.576;2022-10-16T07:24:30;14.50;99.90
44170;DHT22;29836;52.286;9.576;2022-10-16T07:26:55;14.50;99.90
44170;DHT22;29836;52.286;9.576;2022-10-16T07:29:21;14.50;99.90
44170;DHT22;29836;52.286;9.576;2022-10-16T07:31:48;14.50;99.90
44170;DHT22;29836;52.286;9.576;2022-10-16T07:34:16;14.50;99.90
44170;DHT22;29836;52.286;9.576;2022-10-16T07:36:42;14.50;99.90
44170;DHT22;29836;52.286;9.576;2022-10-16T07:39:08;14.80;99.90
44170;DHT22;29836;52.286;9.576;2022-10-16T07:41:33;15.10;99.90
44170;DHT22;29836;52.286;9.576;2022-10-16T07:44:02;15.60;99.90
44170;DHT22;29836;52.286;9.576;2022-10-16T07:46:28;16.00;99.90
44170;DHT22;29836;52.286;9.576;2022-10-16T07:48:54;16.20;99.90
44170;DHT22;29836;52.286;9.576;2022-10-16T07:51:22;16.40;99.90
44170;DHT22;29836;52.286;9.576;2022-10-16T07:53:48;16.40;99.90
44170;DHT22;29836;52.286;9.576;2022-10-16T07:56:15;16.30;99.90
44170;DHT22;29836;52.286;9.576;2022-10-16T07:58:41;16.60;99.90
44170;DHT22;29836;52.286;9.576;2022-10-16T08:01:08;18.00;99.90
44170;DHT22;29836;52.286;9.576;2022-10-16T08:03:35;19.50;99.90
44170;DHT22;29836;52.286;9.576;2022-10-16T08:06:01;20.30;99.90
44170;DHT22;29836;52.286;9.576;2022-10-16T08:08:28;20.50;99.90
44170;DHT22;29836;52.286;9.576;2022-10-16T08:10:54;21.20;99.90
44170;DHT22;29836;52.286;9.576;2022-10-16T08:13:20;22.40;97.70
44170;DHT22;29836;52.286;9.576;2022-10-16T08:15:46;23.60;94.50
44170;DHT22;29836;52.286;9.576;2022-10-16T08:18:14;24.40;91.60
44170;DHT22;29836;52.286;9.576;2022-10-16T08:20:41;24.80;88.10
44170;DHT22;29836;52.286;9.576;2022-10-16T08:23:07;24.90;86.00
44170;DHT22;29836;52.286;9.576;2022-10-16T08:25:36;24.60;84.60
44170;DHT22;29836;52.286;9.576;2022-10-16T08:28:06;25.10;82.30
44170;DHT22;29836;52.286;9.576;2022-10-16T08:30:31;24.50;83.60
44170;DHT22;29836;52.286;9.576;2022-10-16T08:32:57;24.00;84.90
44170;DHT22;29836;52.286;9.576;2022-10-16T08:35:23;23.70;86.70
44170;DHT22;29836;52.286;9.576;2022-10-16T08:37:49;23.90;84.20
44170;DHT22;29836;52.286;9.576;2022-10-16T08:40:24;23.00;88.50
44170;DHT22;29836;52.286;9.576;2022-10-16T08:46:12;22.90;86.50
44170;DHT22;29836;52.286;9.576;2022-10-16T08:51:08;20.60;95.30
44170;DHT22;29836;52.286;9.576;2022-10-16T08:53:46;22.70;90.70
44170;DHT22;29836;52.286;9.576;2022-10-16T08:56:14;24.60;87.60
44170;DHT22;29836;52.286;9.576;2022-10-16T08:58:40;26.70;79.60
44170;DHT22;29836;52.286;9.576;2022-10-16T09:01:13;27.80;72.90
44170;DHT22;29836;52.286;9.576;2022-10-16T09:10:11;29.60;63.30
44170;DHT22;29836;52.286;9.576;2022-10-16T09:21:19;31.10;57.00
44170;DHT22;29836;52.286;9.576;2022-10-16T09:23:47;31.80;55.80
44170;DHT22;29836;52.286;9.576;2022-10-16T09:26:14;32.00;55.50
44170;DHT22;29836;52.286;9.576;2022-10-16T09:28:41;32.20;55.30
44170;DHT22;29836;52.286;9.576;2022-10-16T09:31:17;32.40;55.40
44170;DHT22;29836;52.286;9.576;2022-10-16T09:33:43;32.90;52.80
44170;DHT22;29836;52.286;9.576;2022-10-16T09:36:11;32.50;53.50
44170;DHT22;29836;52.286;9.576;2022-10-16T09:38:38;32.70;53.10
44170;DHT22;29836;52.286;9.576;2022-10-16T09:41:17;33.10;52.40
44170;DHT22;29836;52.286;9.576;2022-10-16T09:43:54;33.90;51.60
44170;DHT22;29836;52.286;9.576;2022-10-16T09:46:31;34.10;51.20
44170;DHT22;29836;52.286;9.576;2022-10-16T09:48:59;33.80;50.40
44170;DHT22;29836;52.286;9.576;2022-10-16T09:56:41;33.00;50.30
44170;DHT22;29836;52.286;9.576;2022-10-16T09:59:20;32.60;50.50
44170;DHT22;29836;52.286;9.576;2022-10-16T10:01:51;32.60;52.20
44170;DHT22;29836;52.286;9.576;2022-10-16T10:04:18;32.40;51.30
44170;DHT22;29836;52.286;9.576;2022-10-16T10:09:31;32.10;51.20
44170;DHT22;29836;52.286;9.576;2022-10-16T10:12:00;31.50;51.00
44170;DHT22;29836;52.286;9.576;2022-10-16T10:17:11;30.90;51.80
44170;DHT22;29836;52.286;9.576;2022-10-16T10:22:31;30.70;52.10
44170;DHT22;29836;52.286;9.576;2022-10-16T10:33:55;28.40;54.00
44170;DHT22;29836;52.286;9.576;2022-10-16T10:36:35;27.70;56.30
44170;DHT22;29836;52.286;9.576;2022-10-16T10:39:11;27.30;56.30
44170;DHT22;29836;52.286;9.576;2022-10-16T10:44:29;27.50;57.20
44170;DHT22;29836;52.286;9.576;2022-10-16T10:52:43;25.10;61.90
44170;DHT22;29836;52.286;9.576;2022-10-16T11:01:01;21.10;70.10
44170;DHT22;29836;52.286;9.576;2022-10-16T11:06:16;20.00;75.20
44170;DHT22;29836;52.286;9.576;2022-10-16T11:08:48;19.60;76.90
44170;DHT22;29836;52.286;9.576;2022-10-16T11:11:32;19.30;79.00
44170;DHT22;29836;52.286;9.576;2022-10-16T11:14:14;19.20;79.90
44170;DHT22;29836;52.286;9.576;2022-10-16T11:16:45;19.10;81.20
44170;DHT22;29836;52.286;9.576;2022-10-16T11:19:17;19.00;82.20
44170;DHT22;29836;52.286;9.576;2022-10-16T11:21:51;18.90;84.00
44170;DHT22;29836;52.286;9.576;2022-10-16T11:24:24;18.90;85.00
44170;DHT22;29836;52.286;9.576;2022-10-16T11:26:56;18.90;87.20
44170;DHT22;29836;52.286;9.576;2022-10-16T11:29:28;19.10;87.00
44170;DHT22;29836;52.286;9.576;2022-10-16T11:31:59;19.30;86.80
44170;DHT22;29836;52.286;9.576;2022-10-16T11:34:34;19.50;85.40
44170;DHT22;29836;52.286;9.576;2022-10-16T11:37:21;19.80;86.70
44170;DHT22;29836;52.286;9.576;2022-10-16T11:39:47;20.00;85.10
44170;DHT22;29836;52.286;9.576;2022-10-16T11:42:18;20.10;83.80
44170;DHT22;29836;52.286;9.576;2022-10-16T11:47:42;20.10;84.20
44170;DHT22;29836;52.286;9.576;2022-10-16T11:52:48;20.10;85.50
44170;DHT22;29836;52.286;9.576;2022-10-16T11:55:20;20.20;84.90
44170;DHT22;29836;52.286;9.576;2022-10-16T11:57:52;20.20;85.60
44170;DHT22;29836;52.286;9.576;2022-10-16T12:08:15;19.80;84.60
44170;DHT22;29836;52.286;9.576;2022-10-16T12:10:43;19.70;85.10
44170;DHT22;29836;52.286;9.576;2022-10-16T12:13:29;19.60;85.20
44170;DHT22;29836;52.286;9.576;2022-10-16T12:16:25;19.30;86.00
44170;DHT22;29836;52.286;9.576;2022-10-16T12:19:10;19.30;87.40
44170;DHT22;29836;52.286;9.576;2022-10-16T12:21:36;19.20;88.20
44170;DHT22;29836;52.286;9.576;2022-10-16T12:24:02;19.00;89.70
44170;DHT22;29836;52.286;9.576;2022-10-16T12:26:32;18.90;88.10
44170;DHT22;29836;52.286;9.576;2022-10-16T12:29:13;18.90;90.10
44170;DHT22;29836;52.286;9.576;2022-10-16T12:31:45;18.80;89.10
44170;DHT22;29836;52.286;9.576;2022-10-16T12:34:42;18.80;89.90
44170;DHT22;29836;52.286;9.576;2022-10-16T12:37:18;18.90;90.30
44170;DHT22;29836;52.286;9.576;2022-10-16T12:39:47;19.00;89.80
44170;DHT22;29836;52.286;9.576;2022-10-16T12:42:39;19.10;88.90
44170;DHT22;29836;52.286;9.576;2022-10-16T12:45:33;19.40;88.40
44170;DHT22;29836;52.286;9.576;2022-10-16T12:48:18;19.70;86.60
44170;DHT22;29836;52.286;9.576;2022-10-16T12:50:44;20.00;87.40
44170;DHT22;29836;52.286;9.576;2022-10-16T12:53:24;20.30;86.90
44170;DHT22;29836;52.286;9.576;2022-10-16T12:56:22;20.10;85.90
44170;DHT22;29836;52.286;9.576;2022-10-16T13:01:35;20.10;87.50
44170;DHT22;29836;52.286;9.576;2022-10-16T13:09:40;19.90;87.30
44170;DHT22;29836;52.286;9.576;2022-10-16T13:12:25;19.80;87.50
44170;DHT22;29836;52.286;9.576;2022-10-16T13:18:00;19.90;85.70
44170;DHT22;29836;52.286;9.576;2022-10-16T13:20:53;19.80;86.50
44170;DHT22;29836;52.286;9.576;2022-10-16T13:26:28;19.80;87.30
44170;DHT22;29836;52.286;9.576;2022-10-16T13:28:59;19.80;87.70
44170;DHT22;29836;52.286;9.576;2022-10-16T13:31:25;19.80;86.30
44170;DHT22;29836;52.286;9.576;2022-10-16T13:33:53;19.70;87.40
44170;DHT22;29836;52.286;9.576;2022-10-16T13:36:27;19.60;88.30
44170;DHT22;29836;52.286;9.576;2022-10-16T13:41:37;19.40;89.70
44170;DHT22;29836;52.286;9.576;2022-10-16T13:44:03;19.40;90.10
44170;DHT22;29836;52.286;9.576;2022-10-16T13:46:29;19.20;90.60
44170;DHT22;29836;52.286;9.576;2022-10-16T13:49:14;19.10;90.60
44170;DHT22;29836;52.286;9.576;2022-10-16T13:51:39;19.00;91.00
44170;DHT22;29836;52.286;9.576;2022-10-16T13:54:05;18.90;90.90
44170;DHT22;29836;52.286;9.576;2022-10-16T13:56:32;18.80;91.60
44170;DHT22;29836;52.286;9.576;2022-10-16T14:01:34;18.60;92.20
44170;DHT22;29836;52.286;9.576;2022-10-16T14:04:06;18.60;92.90
44170;DHT22;29836;52.286;9.576;2022-10-16T14:06:33;18.50;93.30
44170;DHT22;29836;52.286;9.576;2022-10-16T14:09:05;18.50;93.00
44170;DHT22;29836;52.286;9.576;2022-10-16T14:11:31;18.50;93.90
44170;DHT22;29836;52.286;9.576;2022-10-16T14:13:57;18.50;93.20
44170;DHT22;29836;52.286;9.576;2022-10-16T14:16:27;18.40;92.50
44170;DHT22;29836;52.286;9.576;2022-10-16T14:19:00;18.40;92.40
44170;DHT22;29836;52.286;9.576;2022-10-16T14:21:26;18.40;92.30
44170;DHT22;29836;52.286;9.576;2022-10-16T14:23:53;18.30;92.50
44170;DHT22;29836;52.286;9.576;2022-10-16T14:26:25;18.20;93.90
44170;DHT22;29836;52.286;9.576;2022-10-16T14:29:17;18.20;93.60
44170;DHT22;29836;52.286;9.576;2022-10-16T14:36:56;17.70;95.00
44170;DHT22;29836;52.286;9.576;2022-10-16T14:39:23;17.50;96.30
44170;DHT22;29836;52.286;9.576;2022-10-16T14:41:51;17.30;96.80
44170;DHT22;29836;52.286;9.576;2022-10-16T14:44:26;17.20;97.80
44170;DHT22;29836;52.286;9.576;2022-10-16T14:46:52;17.10;98.40
44170;DHT22;29836;52.286;9.576;2022-10-16T14:49:19;17.20;99.60
44170;DHT22;29836;52.286;9.576;2022-10-16T14:51:46;17.30;99.80
44170;DHT22;29836;52.286;9.576;2022-10-16T14:54:13;17.40;99.90
44170;DHT22;29836;52.286;9.576;2022-10-16T14:56:53;17.40;99.90
44170;DHT22;29836;52.286;9.576;2022-10-16T14:59:23;17.40;99.60
44170;DHT22;29836;52.286;9.576;2022-10-16T15:01:49;17.40;99.90
44170;DHT22;29836;52.286;9.576;2022-10-16T15:04:14;17.30;99.90
44170;DHT22;29836;52.286;9.576;2022-10-16T15:06:40;17.30;99.90
44170;DHT22;29836;52.286;9.576;2022-10-16T15:09:06;17.20;99.90
44170;DHT22;29836;52.286;9.576;2022-10-16T15:11:32;17.20;99.90
44170;DHT22;29836;52.286;9.576;2022-10-16T15:13:58;17.10;99.90
44170;DHT22;29836;52.286;9.576;2022-10-16T15:16:24;17.10;99.90
44170;DHT22;29836;52.286;9.576;2022-10-16T15:18:49;17.00;99.90
44170;DHT22;29836;52.286;9.576;2022-10-16T15:21:30;17.00;99.90
44170;DHT22;29836;52.286;9.576;2022-10-16T15:23:56;16.90;99.90
44170;DHT22;29836;52.286;9.576;2022-10-16T15:26:23;16.90;99.90
44170;DHT22;29836;52.286;9.576;2022-10-16T15:28:49;16.80;99.90
44170;DHT22;29836;52.286;9.576;2022-10-16T15:31:15;16.80;99.90
44170;DHT22;29836;52.286;9.576;2022-10-16T15:33:41;16.60;99.90
44170;DHT22;29836;52.286;9.576;2022-10-16T15:36:07;16.50;99.90
44170;DHT22;29836;52.286;9.576;2022-10-16T15:38:33;16.30;99.90
44170;DHT22;29836;52.286;9.576;2022-10-16T15:40:58;16.20;99.90
44170;DHT22;29836;52.286;9.576;2022-10-16T15:43:24;16.10;99.90
44170;DHT22;29836;52.286;9.576;2022-10-16T15:46:00;16.00;99.90
44170;DHT22;29836;52.286;9.576;2022-10-16T15:48:27;15.90;99.90
44170;DHT22;29836;52.286;9.576;2022-10-16T15:50:52;15.80;99.90
44170;DHT22;29836;52.286;9.576;2022-10-16T15:53:18;15.80;99.90
44170;DHT22;29836;52.286;9.576;2022-10-16T15:55:44;15.90;99.90
44170;DHT22;29836;52.286;9.576;2022-10-16T15:58:09;15.90;99.90
44170;DHT22;29836;52.286;9.576;2022-10-16T16:00:35;15.90;99.90
44170;DHT22;29836;52.286;9.576;2022-10-16T16:03:00;15.80;99.90
44170;DHT22;29836;52.286;9.576;2022-10-16T16:05:26;15.80;99.90
44170;DHT22;29836;52.286;9.576;2022-10-16T16:07:52;15.70;99.90
44170;DHT22;29836;52.286;9.576;2022-10-16T16:10:18;15.70;99.90
44170;DHT22;29836;52.286;9.576;2022-10-16T16:12:47;15.60;99.90
44170;DHT22;29836;52.286;9.576;2022-10-16T16:15:19;15.50;99.90
44170;DHT22;29836;52.286;9.576;2022-10-16T16:17:45;15.30;99.90
44170;DHT22;29836;52.286;9.576;2022-10-16T16:20:11;15.20;99.90
44170;DHT22;29836;52.286;9.576;2022-10-16T16:22:36;15.00;99.90
44170;DHT22;29836;52.286;9.576;2022-10-16T16:25:02;14.80;99.90
44170;DHT22;29836;52.286;9.576;2022-10-16T16:27:28;14.60;99.90
44170;DHT22;29836;52.286;9.576;2022-10-16T16:29:55;14.40;99.90
44170;DHT22;29836;52.286;9.576;2022-10-16T16:32:21;14.40;99.90
44170;DHT22;29836;52.286;9.576;2022-10-16T16:34:47;14.30;99.90
44170;DHT22;29836;52.286;9.576;2022-10-16T16:37:12;14.10;99.90
44170;DHT22;29836;52.286;9.576;2022-10-16T16:39:38;14.10;99.90
44170;DHT22;29836;52.286;9.576;2022-10-16T16:42:04;14.40;99.90
44170;DHT22;29836;52.286;9.576;2022-10-16T16:44:32;14.50;99.90
44170;DHT22;29836;52.286;9.576;2022-10-16T16:46:57;14.50;99.90
44170;DHT22;29836;52.286;9.576;2022-10-16T16:49:23;14.40;99.90
44170;DHT22;29836;52.286;9.576;2022-10-16T16:51:49;14.30;99.90
44170;DHT22;29836;52.286;9.576;2022-10-16T16:54:14;14.20;99.90
44170;DHT22;29836;52.286;9.576;2022-10-16T16:56:41;14.10;99.90
44170;DHT22;29836;52.286;9.576;2022-10-16T16:59:16;14.10;99.90
44170;DHT22;29836;52.286;9.576;2022-10-16T17:01:43;14.20;99.90
44170;DHT22;29836;52.286;9.576;2022-10-16T17:04:09;14.20;99.90
44170;DHT22;29836;52.286;9.576;2022-10-16T17:06:36;14.30;99.90
44170;DHT22;29836;52.286;9.576;2022-10-16T17:09:03;14.40;99.90
44170;DHT22;29836;52.286;9.576;2022-10-16T17:11:30;14.50;99.90
44170;DHT22;29836;52.286;9.576;2022-10-16T17:13:57;14.60;99.90
44170;DHT22;29836;52.286;9.576;2022-10-16T17:16:25;14.60;99.90
44170;DHT22;29836;52.286;9.576;2022-10-16T17:18:51;14.60;99.90
44170;DHT22;29836;52.286;9.576;2022-10-16T17:21:18;14.60;99.90
44170;DHT22;29836;52.286;9.576;2022-10-16T17:23:44;14.60;99.90
44170;DHT22;29836;52.286;9.576;2022-10-16T17:26:13;14.60;99.90
44170;DHT22;29836;52.286;9.576;2022-10-16T17:28:39;14.50;99.90
44170;DHT22;29836;52.286;9.576;2022-10-16T17:31:17;14.50;99.90
44170;DHT22;29836;52.286;9.576;2022-10-16T17:33:43;14.50;99.90
44170;DHT22;29836;52.286;9.576;2022-10-16T17:36:09;14.50;99.90
44170;DHT22;29836;52.286;9.576;2022-10-16T17:38:36;14.60;99.90